sensor_id;sensor_type;location;lat;lon;timestamp;temperature;humidity
53752;DHT22;41095;53.090;6.692;2023-01-09T00:00:24;7.30;99.90
53752;DHT22;41095;53.090;6.692;2023-01-09T00:02:49;7.40;99.90
53752;DHT22;41095;53.090;6.692;2023-01-09T00:05:16;7.40;99.90
53752;DHT22;41095;53.090;6.692;2023-01-09T00:07:42;7.40;99.90
53752;DHT22;41095;53.090;6.692;2023-01-09T00:10:09;7.50;99.90
53752;DHT22;41095;53.090;6.692;2023-01-09T00:12:35;7.50;99.90
53752;DHT22;41095;53.090;6.692;2023-01-09T00:15:01;7.50;99.90
53752;DHT22;41095;53.090;6.692;2023-01-09T00:17:27;7.50;99.90
53752;DHT22;41095;53.090;6.692;2023-01-09T00:19:53;7.60;99.90
53752;DHT22;41095;53.090;6.692;2023-01-09T00:22:19;7.70;99.90
53752;DHT22;41095;53.090;6.692;2023-01-09T00:24:45;7.70;99.90
53752;DHT22;41095;53.090;6.692;2023-01-09T00:27:11;7.70;99.90
53752;DHT22;41095;53.090;6.692;2023-01-09T00:29:39;7.80;99.90
53752;DHT22;41095;53.090;6.692;2023-01-09T00:32:07;7.90;99.90
53752;DHT22;41095;53.090;6.692;2023-01-09T00:34:36;7.90;99.90
53752;DHT22;41095;53.090;6.692;2023-01-09T00:37:02;8.00;99.90
53752;DHT22;41095;53.090;6.692;2023-01-09T00:39:28;8.00;99.90
53752;DHT22;41095;53.090;6.692;2023-01-09T00:41:55;8.00;99.90
53752;DHT22;41095;53.090;6.692;2023-01-09T00:44:31;8.00;99.90
53752;DHT22;41095;53.090;6.692;2023-01-09T00:47:03;7.80;99.90
53752;DHT22;41095;53.090;6.692;2023-01-09T00:49:33;7.70;99.90
53752;DHT22;41095;53.090;6.692;2023-01-09T00:52:01;7.60;99.90
53752;DHT22;41095;53.090;6.692;2023-01-09T00:54:28;7.50;99.90
53752;DHT22;41095;53.090;6.692;2023-01-09T00:56:54;7.30;99.90
53752;DHT22;41095;53.090;6.692;2023-01-09T00:59:21;7.30;99.90
53752;DHT22;41095;53.090;6.692;2023-01-09T01:01:47;7.20;99.90
53752;DHT22;41095;53.090;6.692;2023-01-09T01:04:12;7.20;99.90
53752;DHT22;41095;53.090;6.692;2023-01-09T01:06:56;7.20;99.90
53752;DHT22;41095;53.090;6.692;2023-01-09T01:09:41;7.20;99.90
53752;DHT22;41095;53.090;6.692;2023-01-09T01:12:06;7.10;99.90
53752;DHT22;41095;53.090;6.692;2023-01-09T01:14:36;7.20;99.90
53752;DHT22;41095;53.090;6.692;2023-01-09T01:17:03;7.20;99.90
53752;DHT22;41095;53.090;6.692;2023-01-09T01:19:29;7.20;99.90
53752;DHT22;41095;53.090;6.692;2023-01-09T01:21:56;7.20;99.90
53752;DHT22;41095;53.090;6.692;2023-01-09T01:24:22;7.20;99.90
53752;DHT22;41095;53.090;6.692;2023-01-09T01:26:47;7.20;99.90
53752;DHT22;41095;53.090;6.692;2023-01-09T01:29:13;7.20;99.90
53752;DHT22;41095;53.090;6.692;2023-01-09T01:31:39;7.20;99.90
53752;DHT22;41095;53.090;6.692;2023-01-09T01:34:05;7.20;99.90
53752;DHT22;41095;53.090;6.692;2023-01-09T01:36:30;7.30;99.90
53752;DHT22;41095;53.090;6.692;2023-01-09T01:38:57;7.20;99.90
53752;DHT22;41095;53.090;6.692;2023-01-09T01:41:22;7.30;99.90
53752;DHT22;41095;53.090;6.692;2023-01-09T01:44:00;7.30;99.90
53752;DHT22;41095;53.090;6.692;2023-01-09T01:46:27;7.30;99.90
53752;DHT22;41095;53.090;6.692;2023-01-09T01:49:06;7.30;99.90
53752;DHT22;41095;53.090;6.692;2023-01-09T01:51:36;7.30;99.90
53752;DHT22;41095;53.090;6.692;2023-01-09T01:54:08;7.30;99.90
53752;DHT22;41095;53.090;6.692;2023-01-09T01:56:43;7.30;99.90
53752;DHT22;41095;53.090;6.692;2023-01-09T01:59:20;7.30;99.90
53752;DHT22;41095;53.090;6.692;2023-01-09T02:01:54;7.30;99.90
53752;DHT22;41095;53.090;6.692;2023-01-09T02:04:20;7.40;99.90
53752;DHT22;41095;53.090;6.692;2023-01-09T02:06:48;7.30;99.90
53752;DHT22;41095;53.090;6.692;2023-01-09T02:09:15;7.30;99.90
53752;DHT22;41095;53.090;6.692;2023-01-09T02:11:50;7.30;99.90
53752;DHT22;41095;53.090;6.692;2023-01-09T02:14:23;7.40;99.90
53752;DHT22;41095;53.090;6.692;2023-01-09T02:34:14;7.20;99.90
53752;DHT22;41095;53.090;6.692;2023-01-09T02:42:30;7.10;99.90
53752;DHT22;41095;53.090;6.692;2023-01-09T02:44:57;7.10;99.90
53752;DHT22;41095;53.090;6.692;2023-01-09T02:49:58;6.90;99.90
53752;DHT22;41095;53.090;6.692;2023-01-09T03:00:46;6.90;99.90
53752;DHT22;41095;53.090;6.692;2023-01-09T03:08:48;6.70;99.90
53752;DHT22;41095;53.090;6.692;2023-01-09T03:11:15;6.70;99.90
53752;DHT22;41095;53.090;6.692;2023-01-09T03:13:50;6.70;99.90
53752;DHT22;41095;53.090;6.692;2023-01-09T03:16:20;6.60;99.90
53752;DHT22;41095;53.090;6.692;2023-01-09T03:18:49;6.60;99.90
53752;DHT22;41095;53.090;6.692;2023-01-09T03:21:16;6.60;99.90
53752;DHT22;41095;53.090;6.692;2023-01-09T03:26:16;6.50;99.90
53752;DHT22;41095;53.090;6.692;2023-01-09T03:28:42;6.50;99.90
53752;DHT22;41095;53.090;6.692;2023-01-09T03:31:08;6.50;99.90
53752;DHT22;41095;53.090;6.692;2023-01-09T03:33:34;6.40;99.90
53752;DHT22;41095;53.090;6.692;2023-01-09T03:35:59;6.40;99.90
53752;DHT22;41095;53.090;6.692;2023-01-09T03:38:25;6.40;99.90
53752;DHT22;41095;53.090;6.692;2023-01-09T03:40:51;6.30;99.90
53752;DHT22;41095;53.090;6.692;2023-01-09T03:43:16;6.30;99.90
53752;DHT22;41095;53.090;6.692;2023-01-09T03:45:42;6.30;99.90
53752;DHT22;41095;53.090;6.692;2023-01-09T03:48:08;6.20;99.90
53752;DHT22;41095;53.090;6.692;2023-01-09T03:50:33;6.20;99.90
53752;DHT22;41095;53.090;6.692;2023-01-09T03:52:59;6.20;99.90
53752;DHT22;41095;53.090;6.692;2023-01-09T03:55:25;6.20;99.90
53752;DHT22;41095;53.090;6.692;2023-01-09T03:57:51;6.10;99.90
53752;DHT22;41095;53.090;6.692;2023-01-09T04:00:18;6.10;99.90
53752;DHT22;41095;53.090;6.692;2023-01-09T04:02:44;6.10;99.90
53752;DHT22;41095;53.090;6.692;2023-01-09T04:05:10;6.00;99.90
53752;DHT22;41095;53.090;6.692;2023-01-09T04:07:36;5.90;99.90
53752;DHT22;41095;53.090;6.692;2023-01-09T04:10:01;5.90;99.90
53752;DHT22;41095;53.090;6.692;2023-01-09T04:12:27;5.90;99.90
53752;DHT22;41095;53.090;6.692;2023-01-09T04:14:53;5.90;99.90
53752;DHT22;41095;53.090;6.692;2023-01-09T04:17:18;5.90;99.90
53752;DHT22;41095;53.090;6.692;2023-01-09T04:19:44;5.90;99.90
53752;DHT22;41095;53.090;6.692;2023-01-09T04:22:10;5.90;99.90
53752;DHT22;41095;53.090;6.692;2023-01-09T04:24:35;5.80;99.90
53752;DHT22;41095;53.090;6.692;2023-01-09T04:27:01;5.80;99.90
53752;DHT22;41095;53.090;6.692;2023-01-09T04:29:27;5.80;99.90
53752;DHT22;41095;53.090;6.692;2023-01-09T04:31:52;5.80;99.90
53752;DHT22;41095;53.090;6.692;2023-01-09T04:34:18;5.80;99.90
53752;DHT22;41095;53.090;6.692;2023-01-09T04:36:52;5.80;99.90
53752;DHT22;41095;53.090;6.692;2023-01-09T04:39:19;5.70;99.90
53752;DHT22;41095;53.090;6.692;2023-01-09T04:41:45;5.70;99.90
53752;DHT22;41095;53.090;6.692;2023-01-09T04:44:22;5.70;99.90
53752;DHT22;41095;53.090;6.692;2023-01-09T04:46:50;5.70;99.90
53752;DHT22;41095;53.090;6.692;2023-01-09T04:49:16;5.70;99.90
53752;DHT22;41095;53.090;6.692;2023-01-09T04:51:41;5.70;99.90
53752;DHT22;41095;53.090;6.692;2023-01-09T04:54:07;5.80;99.90
53752;DHT22;41095;53.090;6.692;2023-01-09T04:56:33;5.70;99.90
53752;DHT22;41095;53.090;6.692;2023-01-09T04:58:58;5.70;99.90
53752;DHT22;41095;53.090;6.692;2023-01-09T05:01:24;5.70;99.90
53752;DHT22;41095;53.090;6.692;2023-01-09T05:03:50;5.70;99.90
53752;DHT22;41095;53.090;6.692;2023-01-09T05:06:16;5.60;99.90
53752;DHT22;41095;53.090;6.692;2023-01-09T05:08:41;5.70;99.90
53752;DHT22;41095;53.090;6.692;2023-01-09T05:11:07;5.70;99.90
53752;DHT22;41095;53.090;6.692;2023-01-09T05:13:32;5.70;99.90
53752;DHT22;41095;53.090;6.692;2023-01-09T05:15:58;5.80;99.90
53752;DHT22;41095;53.090;6.692;2023-01-09T05:18:24;5.80;99.90
53752;DHT22;41095;53.090;6.692;2023-01-09T05:20:51;5.80;99.90
53752;DHT22;41095;53.090;6.692;2023-01-09T05:23:17;5.80;99.90
53752;DHT22;41095;53.090;6.692;2023-01-09T05:25:42;5.90;99.90
53752;DHT22;41095;53.090;6.692;2023-01-09T05:28:08;5.90;99.90
53752;DHT22;41095;53.090;6.692;2023-01-09T05:30:34;6.00;99.90
53752;DHT22;41095;53.090;6.692;2023-01-09T05:32:59;6.00;99.90
53752;DHT22;41095;53.090;6.692;2023-01-09T05:35:25;6.00;99.90
53752;DHT22;41095;53.090;6.692;2023-01-09T05:37:51;6.00;99.90
53752;DHT22;41095;53.090;6.692;2023-01-09T05:40:16;6.10;99.90
53752;DHT22;41095;53.090;6.692;2023-01-09T05:42:43;6.10;99.90
53752;DHT22;41095;53.090;6.692;2023-01-09T05:45:09;6.10;99.90
53752;DHT22;41095;53.090;6.692;2023-01-09T05:47:35;6.20;99.90
53752;DHT22;41095;53.090;6.692;2023-01-09T05:50:01;6.20;99.90
53752;DHT22;41095;53.090;6.692;2023-01-09T05:52:27;6.20;99.90
53752;DHT22;41095;53.090;6.692;2023-01-09T05:54:53;6.20;99.90
53752;DHT22;41095;53.090;6.692;2023-01-09T05:57:18;6.20;99.90
53752;DHT22;41095;53.090;6.692;2023-01-09T05:59:44;6.20;99.90
53752;DHT22;41095;53.090;6.692;2023-01-09T06:02:10;6.30;99.90
53752;DHT22;41095;53.090;6.692;2023-01-09T06:04:35;6.30;99.90
53752;DHT22;41095;53.090;6.692;2023-01-09T06:07:01;6.20;99.90
53752;DHT22;41095;53.090;6.692;2023-01-09T06:09:27;6.30;99.90
53752;DHT22;41095;53.090;6.692;2023-01-09T06:11:53;6.30;99.90
53752;DHT22;41095;53.090;6.692;2023-01-09T06:14:19;6.30;99.90
53752;DHT22;41095;53.090;6.692;2023-01-09T06:16:45;6.30;99.90
53752;DHT22;41095;53.090;6.692;2023-01-09T06:19:11;6.30;99.90
53752;DHT22;41095;53.090;6.692;2023-01-09T06:21:37;6.30;99.90
53752;DHT22;41095;53.090;6.692;2023-01-09T06:24:03;6.30;99.90
53752;DHT22;41095;53.090;6.692;2023-01-09T06:26:28;6.30;99.90
53752;DHT22;41095;53.090;6.692;2023-01-09T06:28:54;6.40;99.90
53752;DHT22;41095;53.090;6.692;2023-01-09T06:31:24;6.40;99.90
53752;DHT22;41095;53.090;6.692;2023-01-09T06:33:50;6.40;99.90
53752;DHT22;41095;53.090;6.692;2023-01-09T06:36:16;6.40;99.90
53752;DHT22;41095;53.090;6.692;2023-01-09T06:38:42;6.40;99.90
53752;DHT22;41095;53.090;6.692;2023-01-09T06:41:08;6.30;99.90
53752;DHT22;41095;53.090;6.692;2023-01-09T06:43:34;6.40;99.90
53752;DHT22;41095;53.090;6.692;2023-01-09T06:46:00;6.40;99.90
53752;DHT22;41095;53.090;6.692;2023-01-09T06:48:26;6.40;99.90
53752;DHT22;41095;53.090;6.692;2023-01-09T06:50:52;6.40;99.90
53752;DHT22;41095;53.090;6.692;2023-01-09T06:53:18;6.40;99.90
53752;DHT22;41095;53.090;6.692;2023-01-09T06:55:45;6.40;99.90
53752;DHT22;41095;53.090;6.692;2023-01-09T06:58:11;6.40;99.90
53752;DHT22;41095;53.090;6.692;2023-01-09T07:00:37;6.40;99.90
53752;DHT22;41095;53.090;6.692;2023-01-09T07:03:03;6.40;99.90
53752;DHT22;41095;53.090;6.692;2023-01-09T07:05:30;6.40;99.90
53752;DHT22;41095;53.090;6.692;2023-01-09T07:07:57;6.40;99.90
53752;DHT22;41095;53.090;6.692;2023-01-09T07:10:23;6.40;99.90
53752;DHT22;41095;53.090;6.692;2023-01-09T07:12:48;6.40;99.90
53752;DHT22;41095;53.090;6.692;2023-01-09T07:15:14;6.40;99.90
53752;DHT22;41095;53.090;6.692;2023-01-09T07:17:40;6.40;99.90
53752;DHT22;41095;53.090;6.692;2023-01-09T07:20:06;6.30;99.90
53752;DHT22;41095;53.090;6.692;2023-01-09T07:22:32;6.30;99.90
53752;DHT22;41095;53.090;6.692;2023-01-09T07:24:58;6.30;99.90
53752;DHT22;41095;53.090;6.692;2023-01-09T07:27:23;6.20;99.90
53752;DHT22;41095;53.090;6.692;2023-01-09T07:29:49;6.20;99.90
53752;DHT22;41095;53.090;6.692;2023-01-09T07:32:16;6.20;99.90
53752;DHT22;41095;53.090;6.692;2023-01-09T07:34:41;6.20;99.90
53752;DHT22;41095;53.090;6.692;2023-01-09T07:37:07;6.10;99.90
53752;DHT22;41095;53.090;6.692;2023-01-09T07:39:33;6.10;99.90
53752;DHT22;41095;53.090;6.692;2023-01-09T07:41:59;6.10;99.90
53752;DHT22;41095;53.090;6.692;2023-01-09T07:44:24;6.00;99.90
53752;DHT22;41095;53.090;6.692;2023-01-09T07:46:50;6.00;99.90
53752;DHT22;41095;53.090;6.692;2023-01-09T07:49:16;6.00;99.90
53752;DHT22;41095;53.090;6.692;2023-01-09T07:51:41;6.00;99.90
53752;DHT22;41095;53.090;6.692;2023-01-09T07:54:09;6.10;99.90
53752;DHT22;41095;53.090;6.692;2023-01-09T07:56:35;6.00;99.90
53752;DHT22;41095;53.090;6.692;2023-01-09T07:59:01;6.00;99.90
53752;DHT22;41095;53.090;6.692;2023-01-09T08:01:27;6.00;99.90
53752;DHT22;41095;53.090;6.692;2023-01-09T08:03:52;5.90;99.90
53752;DHT22;41095;53.090;6.692;2023-01-09T08:06:18;5.90;99.90
53752;DHT22;41095;53.090;6.692;2023-01-09T08:08:44;5.90;99.90
53752;DHT22;41095;53.090;6.692;2023-01-09T08:11:09;5.90;99.90
53752;DHT22;41095;53.090;6.692;2023-01-09T08:13:35;6.00;99.90
53752;DHT22;41095;53.090;6.692;2023-01-09T08:16:01;6.00;99.90
53752;DHT22;41095;53.090;6.692;2023-01-09T08:18:27;6.10;99.90
53752;DHT22;41095;53.090;6.692;2023-01-09T08:20:52;6.10;99.90
53752;DHT22;41095;53.090;6.692;2023-01-09T08:23:18;6.10;99.90
53752;DHT22;41095;53.090;6.692;2023-01-09T08:25:44;6.20;99.90
53752;DHT22;41095;53.090;6.692;2023-01-09T08:28:09;6.20;99.90
53752;DHT22;41095;53.090;6.692;2023-01-09T08:30:35;6.30;99.90
53752;DHT22;41095;53.090;6.692;2023-01-09T08:33:01;6.30;99.90
53752;DHT22;41095;53.090;6.692;2023-01-09T08:35:27;6.30;99.90
53752;DHT22;41095;53.090;6.692;2023-01-09T08:37:52;6.40;99.90
53752;DHT22;41095;53.090;6.692;2023-01-09T08:40:18;6.40;99.90
53752;DHT22;41095;53.090;6.692;2023-01-09T08:42:44;6.40;99.90
53752;DHT22;41095;53.090;6.692;2023-01-09T08:45:29;6.40;99.90
53752;DHT22;41095;53.090;6.692;2023-01-09T08:48:14;6.40;99.90
53752;DHT22;41095;53.090;6.692;2023-01-09T08:50:40;6.50;99.90
53752;DHT22;41095;53.090;6.692;2023-01-09T08:53:06;6.60;99.90
53752;DHT22;41095;53.090;6.692;2023-01-09T08:55:31;6.60;99.90
53752;DHT22;41095;53.090;6.692;2023-01-09T08:57:57;6.70;99.90
53752;DHT22;41095;53.090;6.692;2023-01-09T09:00:24;6.70;99.90
53752;DHT22;41095;53.090;6.692;2023-01-09T09:02:55;6.70;99.90
53752;DHT22;41095;53.090;6.692;2023-01-09T09:05:21;6.70;99.90
53752;DHT22;41095;53.090;6.692;2023-01-09T09:07:48;6.70;99.90
53752;DHT22;41095;53.090;6.692;2023-01-09T09:10:19;6.80;99.90
53752;DHT22;41095;53.090;6.692;2023-01-09T09:12:47;6.80;99.90
53752;DHT22;41095;53.090;6.692;2023-01-09T09:15:13;6.80;99.90
53752;DHT22;41095;53.090;6.692;2023-01-09T09:17:52;6.80;99.90
53752;DHT22;41095;53.090;6.692;2023-01-09T09:20:20;6.90;99.90
53752;DHT22;41095;53.090;6.692;2023-01-09T09:22:46;6.90;99.90
53752;DHT22;41095;53.090;6.692;2023-01-09T09:25:13;6.90;99.90
53752;DHT22;41095;53.090;6.692;2023-01-09T09:27:38;7.00;99.90
53752;DHT22;41095;53.090;6.692;2023-01-09T09:30:05;7.00;99.90
53752;DHT22;41095;53.090;6.692;2023-01-09T09:32:31;7.00;99.90
53752;DHT22;41095;53.090;6.692;2023-01-09T09:34:57;7.00;99.90
53752;DHT22;41095;53.090;6.692;2023-01-09T09:37:23;7.10;99.90
53752;DHT22;41095;53.090;6.692;2023-01-09T09:39:48;7.10;99.90
53752;DHT22;41095;53.090;6.692;2023-01-09T09:42:46;7.30;99.90
53752;DHT22;41095;53.090;6.692;2023-01-09T09:55:53;7.30;99.90
53752;DHT22;41095;53.090;6.692;2023-01-09T10:01:35;7.40;99.90
53752;DHT22;41095;53.090;6.692;2023-01-09T10:04:05;7.40;99.90
53752;DHT22;41095;53.090;6.692;2023-01-09T10:06:42;7.40;99.90
53752;DHT22;41095;53.090;6.692;2023-01-09T10:09:31;7.40;99.90
53752;DHT22;41095;53.090;6.692;2023-01-09T10:14:32;7.40;99.90
53752;DHT22;41095;53.090;6.692;2023-01-09T10:17:17;7.40;99.90
53752;DHT22;41095;53.090;6.692;2023-01-09T10:25:44;7.60;99.90
53752;DHT22;41095;53.090;6.692;2023-01-09T10:28:28;7.60;99.90
53752;DHT22;41095;53.090;6.692;2023-01-09T10:34:33;7.60;99.90
53752;DHT22;41095;53.090;6.692;2023-01-09T10:36:45;7.60;99.90
53752;DHT22;41095;53.090;6.692;2023-01-09T10:39:20;7.60;99.90
53752;DHT22;41095;53.090;6.692;2023-01-09T10:41:57;7.70;99.90
53752;DHT22;41095;53.090;6.692;2023-01-09T10:46:54;7.70;99.90
53752;DHT22;41095;53.090;6.692;2023-01-09T10:49:22;7.70;99.90
53752;DHT22;41095;53.090;6.692;2023-01-09T10:51:52;7.70;99.90
53752;DHT22;41095;53.090;6.692;2023-01-09T10:54:21;7.70;99.90
53752;DHT22;41095;53.090;6.692;2023-01-09T10:57:11;7.80;99.90
53752;DHT22;41095;53.090;6.692;2023-01-09T10:59:39;7.80;99.90
53752;DHT22;41095;53.090;6.692;2023-01-09T11:02:05;7.80;99.90
53752;DHT22;41095;53.090;6.692;2023-01-09T11:04:40;7.70;99.90
53752;DHT22;41095;53.090;6.692;2023-01-09T11:07:29;7.80;99.90
53752;DHT22;41095;53.090;6.692;2023-01-09T11:10:05;7.80;99.90
53752;DHT22;41095;53.090;6.692;2023-01-09T11:12:34;7.80;99.90
53752;DHT22;41095;53.090;6.692;2023-01-09T11:17:42;7.80;99.90
53752;DHT22;41095;53.090;6.692;2023-01-09T11:20:19;7.90;99.90
53752;DHT22;41095;53.090;6.692;2023-01-09T11:22:50;7.90;99.90
53752;DHT22;41095;53.090;6.692;2023-01-09T11:25:18;8.00;99.90
53752;DHT22;41095;53.090;6.692;2023-01-09T11:30:59;8.10;99.90
53752;DHT22;41095;53.090;6.692;2023-01-09T11:33:36;8.20;99.90
53752;DHT22;41095;53.090;6.692;2023-01-09T11:36:04;8.20;99.90
53752;DHT22;41095;53.090;6.692;2023-01-09T11:38:51;8.20;99.90
53752;DHT22;41095;53.090;6.692;2023-01-09T11:41:32;8.10;99.90
53752;DHT22;41095;53.090;6.692;2023-01-09T11:43:59;8.10;99.90
53752;DHT22;41095;53.090;6.692;2023-01-09T11:46:40;8.10;99.90
53752;DHT22;41095;53.090;6.692;2023-01-09T11:51:40;8.10;99.90
53752;DHT22;41095;53.090;6.692;2023-01-09T11:56:41;8.20;99.90
53752;DHT22;41095;53.090;6.692;2023-01-09T11:59:12;8.20;99.90
53752;DHT22;41095;53.090;6.692;2023-01-09T12:01:56;8.20;99.90
53752;DHT22;41095;53.090;6.692;2023-01-09T12:04:34;8.30;99.90
53752;DHT22;41095;53.090;6.692;2023-01-09T12:09:57;8.30;99.90
53752;DHT22;41095;53.090;6.692;2023-01-09T12:15:22;8.40;99.90
53752;DHT22;41095;53.090;6.692;2023-01-09T12:26:30;8.50;99.90
53752;DHT22;41095;53.090;6.692;2023-01-09T12:31:46;8.60;99.90
53752;DHT22;41095;53.090;6.692;2023-01-09T12:34:23;8.50;99.90
53752;DHT22;41095;53.090;6.692;2023-01-09T12:44:54;8.40;99.90
53752;DHT22;41095;53.090;6.692;2023-01-09T12:47:43;8.40;99.90
53752;DHT22;41095;53.090;6.692;2023-01-09T12:55:37;8.40;99.90
53752;DHT22;41095;53.090;6.692;2023-01-09T13:00:59;8.40;99.90
53752;DHT22;41095;53.090;6.692;2023-01-09T13:03:39;8.40;99.90
53752;DHT22;41095;53.090;6.692;2023-01-09T13:06:11;8.40;99.90
53752;DHT22;41095;53.090;6.692;2023-01-09T13:08:41;8.50;99.90
53752;DHT22;41095;53.090;6.692;2023-01-09T13:11:26;8.50;99.90
53752;DHT22;41095;53.090;6.692;2023-01-09T13:16:27;8.40;99.90
53752;DHT22;41095;53.090;6.692;2023-01-09T13:19:10;8.40;99.90
53752;DHT22;41095;53.090;6.692;2023-01-09T13:21:39;8.40;99.90
53752;DHT22;41095;53.090;6.692;2023-01-09T13:24:19;8.50;99.90
53752;DHT22;41095;53.090;6.692;2023-01-09T13:27:09;8.50;99.90
53752;DHT22;41095;53.090;6.692;2023-01-09T13:29:39;8.50;99.90
53752;DHT22;41095;53.090;6.692;2023-01-09T13:34:38;8.50;99.90
53752;DHT22;41095;53.090;6.692;2023-01-09T13:37:04;8.40;99.90
53752;DHT22;41095;53.090;6.692;2023-01-09T13:39:38;8.40;99.90
53752;DHT22;41095;53.090;6.692;2023-01-09T13:42:05;8.40;99.90
53752;DHT22;41095;53.090;6.692;2023-01-09T13:44:53;8.40;99.90
53752;DHT22;41095;53.090;6.692;2023-01-09T13:47:25;8.40;99.90
53752;DHT22;41095;53.090;6.692;2023-01-09T13:50:25;8.40;99.90
53752;DHT22;41095;53.090;6.692;2023-01-09T13:52:51;8.40;99.90
53752;DHT22;41095;53.090;6.692;2023-01-09T13:55:21;8.30;99.90
53752;DHT22;41095;53.090;6.692;2023-01-09T14:03:21;8.40;99.90
53752;DHT22;41095;53.090;6.692;2023-01-09T14:08:18;8.50;99.90
53752;DHT22;41095;53.090;6.692;2023-01-09T14:10:58;8.50;99.90
53752;DHT22;41095;53.090;6.692;2023-01-09T14:13:29;8.50;99.90
53752;DHT22;41095;53.090;6.692;2023-01-09T14:16:16;8.50;99.90
53752;DHT22;41095;53.090;6.692;2023-01-09T14:18:59;8.60;99.90
53752;DHT22;41095;53.090;6.692;2023-01-09T14:21:44;8.60;99.90
53752;DHT22;41095;53.090;6.692;2023-01-09T14:27:02;8.60;99.90
53752;DHT22;41095;53.090;6.692;2023-01-09T14:35:08;8.50;99.90
53752;DHT22;41095;53.090;6.692;2023-01-09T14:37:35;8.50;99.90
53752;DHT22;41095;53.090;6.692;2023-01-09T14:40:02;8.40;99.90
53752;DHT22;41095;53.090;6.692;2023-01-09T14:42:31;8.40;99.90
53752;DHT22;41095;53.090;6.692;2023-01-09T14:45:12;8.40;99.90
53752;DHT22;41095;53.090;6.692;2023-01-09T14:47:42;8.40;99.90
53752;DHT22;41095;53.090;6.692;2023-01-09T14:50:17;8.40;99.90
53752;DHT22;41095;53.090;6.692;2023-01-09T14:52:51;8.40;99.90
53752;DHT22;41095;53.090;6.692;2023-01-09T14:55:26;8.40;99.90
53752;DHT22;41095;53.090;6.692;2023-01-09T14:57:54;8.40;99.90
53752;DHT22;41095;53.090;6.692;2023-01-09T15:00:22;8.40;99.90
53752;DHT22;41095;53.090;6.692;2023-01-09T15:02:49;8.40;99.90
53752;DHT22;41095;53.090;6.692;2023-01-09T15:05:21;8.40;99.90
53752;DHT22;41095;53.090;6.692;2023-01-09T15:07:59;8.50;99.90
53752;DHT22;41095;53.090;6.692;2023-01-09T15:10:29;8.40;99.90
53752;DHT22;41095;53.090;6.692;2023-01-09T15:12:57;8.50;99.90
53752;DHT22;41095;53.090;6.692;2023-01-09T15:15:25;8.50;99.90
53752;DHT22;41095;53.090;6.692;2023-01-09T15:17:55;8.50;99.90
53752;DHT22;41095;53.090;6.692;2023-01-09T15:20:27;8.50;99.90
53752;DHT22;41095;53.090;6.692;2023-01-09T15:22:57;8.40;99.90
53752;DHT22;41095;53.090;6.692;2023-01-09T15:25:29;8.40;99.90
53752;DHT22;41095;53.090;6.692;2023-01-09T15:27:57;8.40;99.90
53752;DHT22;41095;53.090;6.692;2023-01-09T15:30:32;8.40;99.90
53752;DHT22;41095;53.090;6.692;2023-01-09T15:33:04;8.40;99.90
53752;DHT22;41095;53.090;6.692;2023-01-09T15:35:32;8.40;99.90
53752;DHT22;41095;53.090;6.692;2023-01-09T15:37:58;8.40;99.90
53752;DHT22;41095;53.090;6.692;2023-01-09T15:40:29;8.40;99.90
53752;DHT22;41095;53.090;6.692;2023-01-09T15:42:58;8.40;99.90
53752;DHT22;41095;53.090;6.692;2023-01-09T15:45:39;8.40;99.90
53752;DHT22;41095;53.090;6.692;2023-01-09T15:50:54;8.40;99.90
53752;DHT22;41095;53.090;6.692;2023-01-09T15:53:22;8.40;99.90
53752;DHT22;41095;53.090;6.692;2023-01-09T15:58:39;8.30;99.90
53752;DHT22;41095;53.090;6.692;2023-01-09T16:01:27;8.20;99.90
53752;DHT22;41095;53.090;6.692;2023-01-09T16:03:57;8.20;99.90
53752;DHT22;41095;53.090;6.692;2023-01-09T16:06:30;8.20;99.90
53752;DHT22;41095;53.090;6.692;2023-01-09T16:08:58;8.20;99.90
53752;DHT22;41095;53.090;6.692;2023-01-09T16:11:32;8.10;99.90
53752;DHT22;41095;53.090;6.692;2023-01-09T16:16:39;8.00;99.90
53752;DHT22;41095;53.090;6.692;2023-01-09T16:22:01;7.90;99.90
53752;DHT22;41095;53.090;6.692;2023-01-09T16:24:39;7.90;99.90
53752;DHT22;41095;53.090;6.692;2023-01-09T16:27:25;7.80;99.90
53752;DHT22;41095;53.090;6.692;2023-01-09T16:29:56;7.80;99.90
53752;DHT22;41095;53.090;6.692;2023-01-09T16:32:30;7.80;99.90
53752;DHT22;41095;53.090;6.692;2023-01-09T16:35:01;7.80;99.90
53752;DHT22;41095;53.090;6.692;2023-01-09T16:37:27;7.70;99.90
53752;DHT22;41095;53.090;6.692;2023-01-09T16:43:07;7.60;99.90
53752;DHT22;41095;53.090;6.692;2023-01-09T16:45:39;7.60;99.90
53752;DHT22;41095;53.090;6.692;2023-01-09T16:48:19;7.50;99.90
53752;DHT22;41095;53.090;6.692;2023-01-09T16:50:45;7.50;99.90
53752;DHT22;41095;53.090;6.692;2023-01-09T16:53:22;7.40;99.90
53752;DHT22;41095;53.090;6.692;2023-01-09T16:55:52;7.40;99.90
53752;DHT22;41095;53.090;6.692;2023-01-09T16:58:27;7.40;99.90
53752;DHT22;41095;53.090;6.692;2023-01-09T17:00:53;7.50;99.90
53752;DHT22;41095;53.090;6.692;2023-01-09T17:03:19;7.40;99.90
53752;DHT22;41095;53.090;6.692;2023-01-09T17:05:51;7.40;99.90
53752;DHT22;41095;53.090;6.692;2023-01-09T17:08:36;7.40;99.90
53752;DHT22;41095;53.090;6.692;2023-01-09T17:11:02;7.40;99.90
53752;DHT22;41095;53.090;6.692;2023-01-09T17:13:28;7.30;99.90
53752;DHT22;41095;53.090;6.692;2023-01-09T17:15:55;7.30;99.90
53752;DHT22;41095;53.090;6.692;2023-01-09T17:18:23;7.30;99.90
53752;DHT22;41095;53.090;6.692;2023-01-09T17:20:54;7.40;99.90
53752;DHT22;41095;53.090;6.692;2023-01-09T17:23:21;7.40;99.90
53752;DHT22;41095;53.090;6.692;2023-01-09T17:25:48;7.40;99.90
53752;DHT22;41095;53.090;6.692;2023-01-09T17:28:34;7.40;99.90
53752;DHT22;41095;53.090;6.692;2023-01-09T17:31:04;7.50;99.90
53752;DHT22;41095;53.090;6.692;2023-01-09T17:33:32;7.50;99.90
53752;DHT22;41095;53.090;6.692;2023-01-09T17:35:58;7.50;99.90
53752;DHT22;41095;53.090;6.692;2023-01-09T17:38:25;7.50;99.90
53752;DHT22;41095;53.090;6.692;2023-01-09T17:40:52;7.50;99.90
53752;DHT22;41095;53.090;6.692;2023-01-09T17:43:20;7.50;99.90
53752;DHT22;41095;53.090;6.692;2023-01-09T17:45:47;7.40;99.90
53752;DHT22;41095;53.090;6.692;2023-01-09T17:48:21;7.40;99.90
53752;DHT22;41095;53.090;6.692;2023-01-09T17:50:47;7.40;99.90
53752;DHT22;41095;53.090;6.692;2023-01-09T17:53:13;7.40;99.90
53752;DHT22;41095;53.090;6.692;2023-01-09T17:55:40;7.30;99.90
53752;DHT22;41095;53.090;6.692;2023-01-09T17:58:07;7.30;99.90
53752;DHT22;41095;53.090;6.692;2023-01-09T18:00:35;7.40;99.90
53752;DHT22;41095;53.090;6.692;2023-01-09T18:03:04;7.40;99.90
53752;DHT22;41095;53.090;6.692;2023-01-09T18:05:32;7.30;99.90
53752;DHT22;41095;53.090;6.692;2023-01-09T18:07:58;7.30;99.90
53752;DHT22;41095;53.090;6.692;2023-01-09T18:10:25;7.30;99.90
53752;DHT22;41095;53.090;6.692;2023-01-09T18:12:52;7.30;99.90
53752;DHT22;41095;53.090;6.692;2023-01-09T18:15:19;7.30;99.90
53752;DHT22;41095;53.090;6.692;2023-01-09T18:17:45;7.20;99.90
53752;DHT22;41095;53.090;6.692;2023-01-09T18:20:11;7.30;99.90
53752;DHT22;41095;53.090;6.692;2023-01-09T18:22:37;7.30;99.90
53752;DHT22;41095;53.090;6.692;2023-01-09T18:25:03;7.20;99.90
53752;DHT22;41095;53.090;6.692;2023-01-09T18:27:29;7.30;99.90